Latest Coastal Weather Observations for Hogan Island

IDV60701

Issued at 12:21 am EDT Sunday 22 January 2017 (issued every 10 minutes, with the page automatically refreshed every 10 minutes)

About coastal observations | Map of coastal stations | Coastal observations for VIC | Marine services | Other Formats
Station Details ID: 200838 Name: HOGAN ISLAND Lat: -39.22 Lon: 146.98 Height: 116.0 m
Data from the previous 72 hours. | See also: Recent months at Hogan Island
Date/Time
EDT
Temp
°C
Wind Pressure Rain since
9am
mm
Weather Cloud Vis
km
Sea
Height
m
Swell
Dir  Spd
kts
Gust
kts
hPa Trend Height
m
Period
s
Dir
22/12:00am 15.1 W 15 17 1015.9 - 0.0 - - - - - - -
 
Date/Time
EDT
Temp
°C
Wind Pressure Rain since
9am
mm
Weather Cloud Vis
km
Sea
Height
m
Swell
Dir  Spd
kts
Gust
kts
hPa Trend Height
m
Period
s
Dir
21/11:30pm 15.1 WSW 16 18 1016.2 - 0.0 - - - - - - -
21/11:00pm 15.4 W 17 20 1016.3 - 0.0 - - - - - - -
21/10:30pm 15.4 W 18 21 1016.4 - 0.0 - - - - - - -
21/10:00pm 15.4 W 18 21 1016.3 - 0.0 - - - - - - -
21/09:30pm 15.5 W 21 23 1016.3 - 0.0 - - - - - - -
21/09:00pm 15.5 W 21 24 1015.8 - 0.0 - - - - - - -
21/08:30pm 15.8 W 21 24 1015.9 - 0.0 - - - - - - -
21/08:00pm 16.4 W 20 23 1015.5 - 0.0 - - - - - - -
21/07:30pm 16.7 W 20 23 1015.2 - 0.0 - - - - - - -
21/07:00pm 17.3 W 20 23 1014.9 - 0.0 - - - - - - -
21/06:30pm 17.9 W 19 22 1014.7 - 0.0 - - - - - - -
21/06:00pm 18.5 W 20 23 1014.5 - 0.0 - - - - - - -
21/05:30pm 18.7 W 21 24 1014.8 - 0.0 - - - - - - -
21/05:00pm 18.9 W 21 24 1014.9 - 0.0 - - - - - - -
21/04:30pm 19.2 WSW 21 24 1015.0 - 0.0 - - - - - - -
21/04:00pm 19.2 W 23 26 1015.0 - 0.0 - - - - - - -
21/03:30pm 19.2 W 23 26 1014.9 - 0.0 - - - - - - -
21/03:00pm 19.0 W 24 28 1014.6 - 0.0 - - - - - - -
21/02:30pm 19.1 W 23 27 1014.5 - 0.0 - - - - - - -
21/02:00pm 19.2 WSW 23 27 1014.5 - 0.0 - - - - - - -
21/01:30pm 19.5 WSW 22 26 1014.5 - 0.0 - - - - - - -
21/01:00pm 18.9 WSW 22 26 1014.6 - 0.0 - - - - - - -
21/12:30pm 18.2 WSW 23 26 1014.4 - 0.0 - - - - - - -
21/12:00pm 18.5 WSW 21 24 1014.1 - 0.0 - - - - - - -
21/11:30am 18.4 WSW 21 25 1014.2 - 0.0 - - - - - - -
21/11:00am 17.7 WSW 23 29 1013.9 - 0.0 - - - - - - -
21/10:30am 16.9 WSW 23 28 1013.5 - 0.0 - - - - - - -
21/10:00am 16.7 WSW 24 29 1013.4 - 0.0 - - - - - - -
21/09:30am 16.1 WSW 23 27 1013.0 - 0.0 - - - - - - -
21/09:00am 15.4 WSW 24 29 1012.5 - 1.6 - - - - - - -
21/08:30am 15.2 WSW 27 32 1012.1 - 1.6 - - - - - - -
21/08:00am 14.8 WSW 27 32 1011.7 - 1.6 - - - - - - -
21/07:30am 14.1 WSW 27 32 1011.1 - 1.6 - - - - - - -
21/07:00am 13.8 WSW 24 31 1010.5 - 1.4 - - - - - - -
21/06:30am 13.7 WSW 28 33 1009.9 - 1.4 - - - - - - -
21/06:00am 13.7 WSW 27 32 1009.2 - 1.4 - - - - - - -
21/05:30am 13.8 WSW 26 31 1009.0 - 1.4 - - - - - - -
21/05:00am 13.7 WSW 27 34 1008.5 - 1.4 - - - - - - -
21/04:30am 13.7 WSW 26 33 1008.4 - 1.4 - - - - - - -
21/04:00am 13.6 WSW 30 35 1007.7 - 1.4 - - - - - - -
21/03:30am 13.5 WSW 29 34 1007.4 - 1.4 - - - - - - -
21/03:00am 13.8 WSW 30 35 1007.0 - 1.4 - - - - - - -
21/02:30am 13.5 WSW 29 34 1006.7 - 1.4 - - - - - - -
21/02:00am 13.8 WSW 28 33 1006.9 - 1.4 - - - - - - -
21/01:30am 13.9 WSW 28 32 1006.5 - 1.4 - - - - - - -
21/01:00am 14.2 SW 26 29 1006.6 - 1.4 - - - - - - -
21/12:30am 14.2 WSW 27 32 1006.4 - 1.4 - - - - - - -
21/12:00am 14.5 WSW 29 33 1006.1 - 1.4 - - - - - - -
 
Date/Time
EDT
Temp
°C
Wind Pressure Rain since
9am
mm
Weather Cloud Vis
km
Sea
Height
m
Swell
Dir  Spd
kts
Gust
kts
hPa Trend Height
m
Period
s
Dir
20/11:30pm 14.6 WSW 27 32 1006.0 - 1.4 - - - - - - -
20/11:00pm 14.6 WSW 27 32 1005.8 - 1.4 - - - - - - -
20/10:30pm 14.8 SW 30 37 1005.7 - 1.4 - - - - - - -
20/10:00pm 14.8 WSW 32 38 1004.8 - 1.4 - - - - - - -
20/09:30pm 14.9 WSW 31 38 1004.5 - 1.4 - - - - - - -
20/09:00pm 15.1 WSW 34 40 1003.6 - 1.4 - - - - - - -
20/08:30pm 15.4 WSW 33 40 1003.0 - 1.4 - - - - - - -
20/08:00pm 15.7 WSW 35 40 1002.6 - 1.4 - - - - - - -
20/07:30pm 16.2 WSW 35 41 1001.7 - 1.4 - - - - - - -
20/07:12pm 16.5 WSW 34 44 1001.4 - 1.4 - - - - - - -
20/07:00pm 16.5 WSW 37 43 1001.1 - 1.4 - - - - - - -
20/06:30pm 16.8 WSW 37 42 1000.4 - 1.4 - - - - - - -
20/06:00pm 16.0 WSW 39 49 999.4 - 1.4 - - - - - - -
20/05:59pm 16.0 WSW 39 49 999.5 - 1.4 - - - - - - -
20/05:49pm 15.4 WSW 42 46 999.0 - 1.4 - - - - - - -
20/05:44pm 15.6 WSW 31 41 999.2 - 1.4 - - - - - - -
20/05:30pm 17.1 WSW 28 32 999.1 - 1.4 - - - - - - -
20/05:00pm 16.0 SW 33 40 998.4 - 1.4 - - - - - - -
20/04:30pm 16.3 WSW 33 38 997.5 - 1.4 - - - - - - -
20/04:00pm 15.7 SW 31 37 996.8 - 1.4 - - - - - - -
20/03:30pm 15.5 SW 35 42 996.0 - 1.4 - - - - - - -
20/03:00pm 15.6 WSW 35 40 995.0 - 1.4 - - - - - - -
20/02:30pm 15.5 WSW 38 45 994.4 - 1.4 - - - - - - -
20/02:00pm 15.8 W 42 49 993.3 - 1.2 - - - - - - -
20/01:30pm 16.6 W 41 49 992.1 - 1.2 - - - - - - -
20/01:00pm 15.8 W 38 45 992.0 - 1.2 - - - - - - -
20/12:30pm 16.1 W 31 36 992.1 - 1.2 - - - - - - -
20/12:00pm 16.1 W 29 33 991.8 - 1.2 - - - - - - -
20/11:30am 16.9 W 26 31 991.6 - 1.2 - - - - - - -
20/11:00am 16.9 W 25 28 991.2 - 1.2 - - - - - - -
20/10:35am 16.1 WNW 27 31 991.1 - 1.2 - - - - - - -
20/10:30am 16.2 NW 23 31 991.1 - 0.8 - - - - - - -
20/10:24am 16.1 NW 20 27 991.2 - 0.6 - - - - - - -
20/10:00am 16.1 N 15 20 991.5 - 0.4 - - - - - - -
20/09:30am 16.1 N 17 21 991.6 - 0.4 - - - - - - -
20/09:00am 15.9 N 15 19 991.9 - 9.8 - - - - - - -
20/08:30am 16.0 NNE 12 15 992.1 - 7.6 - - - - - - -
20/08:00am 16.1 NNE 16 19 991.8 - 4.4 - - - - - - -
20/07:30am 15.4 NE 16 19 992.1 - 4.2 - - - - - - -
20/07:00am 15.8 NNE 15 18 992.9 - 4.2 - - - - - - -
20/06:30am 16.2 NNE 12 15 994.0 - 3.4 - - - - - - -
20/06:00am 16.4 NE 8 9 995.2 - 2.6 - - - - - - -
20/05:30am 16.5 NE 8 10 996.9 - 2.0 - - - - - - -
20/05:00am 16.7 ENE 7 9 997.7 - 1.4 - - - - - - -
20/04:30am 16.7 E 9 11 998.3 - 0.2 - - - - - - -
20/04:00am 16.8 ESE 12 15 998.8 - 0.0 - - - - - - -
20/03:30am 16.9 E 13 14 999.6 - 0.0 - - - - - - -
20/03:00am 17.0 E 14 16 999.7 - 0.0 - - - - - - -
20/02:53am 17.1 E 11 15 1000.5 - 0.0 - - - - - - -
20/02:30am 17.0 ENE 22 25 998.9 - 0.0 - - - - - - -
20/02:00am 17.1 ENE 27 33 999.0 - 0.0 - - - - - - -
20/01:30am 17.1 ENE 30 36 999.8 - 0.0 - - - - - - -
20/01:00am 17.0 ENE 29 34 1000.5 - 0.0 - - - - - - -
20/12:30am 16.9 E 30 36 1001.1 - 0.0 - - - - - - -
20/12:15am 16.8 E 30 40 1001.6 - 0.0 - - - - - - -
20/12:00am 16.7 E 30 36 1001.4 - 0.0 - - - - - - -
 
Date/Time
EDT
Temp
°C
Wind Pressure Rain since
9am
mm
Weather Cloud Vis
km
Sea
Height
m
Swell
Dir  Spd
kts
Gust
kts
hPa Trend Height
m
Period
s
Dir
19/11:30pm 16.6 E 30 36 1002.8 - 0.0 - - - - - - -
19/11:00pm 16.6 E 31 37 1003.7 - 0.0 - - - - - - -
19/10:30pm 17.0 E 27 33 1004.8 - 0.0 - - - - - - -
19/10:00pm 16.4 E 26 31 1005.6 - 0.0 - - - - - - -
19/09:30pm 16.3 E 29 33 1006.5 - 0.0 - - - - - - -
19/09:00pm 16.2 E 28 32 1007.1 - 0.0 - - - - - - -
19/08:30pm 16.0 E 31 35 1007.6 - 0.0 - - - - - - -
19/08:00pm 16.3 E 30 34 1008.4 - 0.0 - - - - - - -
19/07:30pm 16.3 E 31 36 1008.3 - 0.0 - - - - - - -
19/07:00pm 16.6 E 31 36 1008.4 - 0.0 - - - - - - -
19/06:30pm 17.2 E 30 35 1008.8 - 0.0 - - - - - - -
19/06:00pm 17.1 E 29 34 1009.1 - 0.0 - - - - - - -
19/05:30pm 17.3 E 29 34 1009.6 - 0.0 - - - - - - -
19/05:00pm 17.8 E 32 36 1009.9 - 0.0 - - - - - - -
19/04:30pm 18.4 E 31 35 1010.2 - 0.0 - - - - - - -
19/04:00pm 18.9 E 29 34 1011.0 - 0.0 - - - - - - -
19/03:30pm 19.0 E 28 36 1011.4 - 0.0 - - - - - - -
19/03:00pm 19.1 E 27 31 1012.0 - 0.0 - - - - - - -
19/02:30pm 19.2 E 23 29 1012.4 - 0.0 - - - - - - -
19/02:00pm 20.8 E 19 24 1012.9 - 0.0 - - - - - - -
19/01:30pm 20.1 E 19 22 1013.3 - 0.0 - - - - - - -
19/01:00pm 20.2 ENE 18 21 1013.8 - 0.0 - - - - - - -
19/12:30pm 19.7 ENE 17 20 1014.1 - 0.0 - - - - - - -
19/12:00pm 19.8 ENE 17 20 1014.0 - 0.0 - - - - - - -
19/11:30am 19.0 ENE 15 18 1014.3 - 0.0 - - - - - - -
19/11:00am 18.7 ENE 14 16 1014.5 - 0.0 - - - - - - -
19/10:30am 18.5 ENE 12 16 1014.9 - 0.0 - - - - - - -
19/10:00am 18.6 ENE 14 16 1015.3 - 0.0 - - - - - - -
19/09:30am 18.3 ENE 12 14 1015.5 - 0.0 - - - - - - -
19/09:00am 18.0 NE 11 14 1015.4 - 0.0 - - - - - - -
19/08:30am 17.2 ENE 10 12 1015.3 - 0.0 - - - - - - -
19/08:00am 16.5 ENE 9 11 1015.2 - 0.0 - - - - - - -
19/07:30am 15.7 ENE 7 8 1015.2 - 0.0 - - - - - - -
19/07:00am 14.2 NE 5 6 1015.1 - 0.0 - - - - - - -
19/06:30am 13.5 ENE 4 5 1015.0 - 0.0 - - - - - - -
19/06:00am 13.4 E 4 5 1014.5 - 0.0 - - - - - - -
19/05:30am 13.3 ESE 4 5 1014.6 - 0.0 - - - - - - -
19/05:00am 13.0 CALM 0 0 1014.6 - 0.0 - - - - - - -
19/04:30am 13.4 SSE 2 3 1014.5 - 0.0 - - - - - - -
19/04:00am 13.1 S 5 6 1014.6 - 0.0 - - - - - - -
19/03:30am 12.8 S 6 7 1014.7 - 0.0 - - - - - - -
19/03:00am 13.0 SSW 8 9 1014.6 - 0.0 - - - - - - -
19/02:30am 13.9 SSW 9 12 1015.0 - 0.0 - - - - - - -
19/02:00am 14.2 SSW 11 13 1015.1 - 0.0 - - - - - - -
19/01:30am 14.4 SSW 12 15 1015.3 - 0.0 - - - - - - -
19/01:00am 14.6 SW 15 18 1015.5 - 0.0 - - - - - - -
19/12:30am 14.7 SW 15 19 1015.8 - 0.0 - - - - - - -

Other Formats:

Comma delimited format used in spreadsheet applications
http://www.bom.gov.au/fwo/IDV60701/IDV60701.94949.axf

JavaScript Object Notation format (JSON) in row-major order
http://www.bom.gov.au/fwo/IDV60701/IDV60701.94949.json